Atterbury, Illinois
Current Conditions -  °F | °C
As of 5:52 AM on Thursday 23 Oct 2014 (Local Time) from KSPI Reporting Station
Clear Clear  
Wind Chill: 36°   Ceiling: Unl
Heat Index: 39°   Visibility: 10mi
Dew Point: 35°   Wind: 5mph
Humidity: 86%   Direction: 110°ESE
Pressure: 30.21"   Gusts: NA
Location:  40.0452°N, 89.8548°W
Report Text: KSPI 231052Z 11004KT 10SM CLR 04/02 A3021 RMK AO2 SLP230 T00390017
Loading
Personal Weather Stations






























Interactive Weather Map New forecast layout! Learn more

10-Day Weather Forecast

Advertisements
Track Severe Weather on mobile